createdAt,value
2019-04-01T00:00:11.964Z,19.21
2019-04-01T00:01:11.918Z,19.21
2019-04-01T00:02:11.970Z,19.18
2019-04-01T00:03:12.033Z,19.17
2019-04-01T00:04:11.907Z,19.15
2019-04-01T00:05:11.997Z,19.12
2019-04-01T00:06:11.949Z,19.15
2019-04-01T00:07:11.978Z,19.13
2019-04-01T00:08:11.752Z,19.12
2019-04-01T00:09:11.924Z,19.13
2019-04-01T00:10:11.904Z,19.14
2019-04-01T00:11:11.996Z,19.13
2019-04-01T00:12:11.811Z,19.1
2019-04-01T00:13:11.993Z,19.1
2019-04-01T00:14:11.779Z,19.09
2019-04-01T00:15:11.814Z,19.08
2019-04-01T00:16:11.897Z,19.09
2019-04-01T00:17:11.857Z,19.09
2019-04-01T00:18:11.835Z,19.09
2019-04-01T00:19:11.970Z,19.09
2019-04-01T00:20:12.221Z,19.08
2019-04-01T00:21:11.967Z,19.07
2019-04-01T00:22:11.902Z,19.08
2019-04-01T00:23:12.798Z,19.05
2019-04-01T00:24:11.942Z,19.07
2019-04-01T00:25:12.105Z,19.06
2019-04-01T00:26:11.813Z,19.07
2019-04-01T00:27:11.842Z,19.03
2019-04-01T00:28:11.872Z,19.07
2019-04-01T00:29:11.848Z,19.07
2019-04-01T00:30:11.891Z,19.07
2019-04-01T00:31:11.816Z,19.06
2019-04-01T00:32:11.833Z,19.07
2019-04-01T00:33:11.901Z,19.05
2019-04-01T00:34:11.857Z,19.05
2019-04-01T00:35:11.838Z,19.05
2019-04-01T00:36:11.958Z,19.02
2019-04-01T00:37:11.870Z,19.03
2019-04-01T00:38:11.997Z,19.02
2019-04-01T00:39:11.934Z,19.02
2019-04-01T00:40:11.915Z,19.02
2019-04-01T00:41:11.982Z,19.05
2019-04-01T00:42:12.024Z,19.03
2019-04-01T00:43:11.961Z,19.05
2019-04-01T00:44:11.974Z,19.02
2019-04-01T00:45:11.835Z,19.05
2019-04-01T00:46:11.717Z,19.01
2019-04-01T00:47:11.757Z,19.01
2019-04-01T00:48:11.769Z,19.01
2019-04-01T00:49:11.785Z,19
2019-04-01T00:50:11.940Z,19.01
2019-04-01T00:51:11.859Z,19.01
2019-04-01T00:52:11.811Z,19.01
2019-04-01T00:53:11.953Z,19.01
2019-04-01T00:54:12.215Z,19.02
2019-04-01T00:55:12.088Z,19.02
2019-04-01T00:56:11.840Z,19
2019-04-01T00:57:11.915Z,19.01
2019-04-01T00:58:11.860Z,18.99
2019-04-01T00:59:11.889Z,18.99
2019-04-01T01:00:12.086Z,19
2019-04-01T01:01:12.004Z,19
2019-04-01T01:02:11.949Z,18.98
2019-04-01T01:03:11.724Z,18.98
2019-04-01T01:04:11.805Z,18.98
2019-04-01T01:05:11.760Z,18.99
2019-04-01T01:06:11.899Z,18.99
2019-04-01T01:07:11.795Z,18.98
2019-04-01T01:08:11.915Z,19.01
2019-04-01T01:09:11.850Z,18.97
2019-04-01T01:10:11.929Z,18.96
2019-04-01T01:11:11.851Z,18.98
2019-04-01T01:12:11.990Z,18.98
2019-04-01T01:13:11.906Z,18.97
2019-04-01T01:14:11.901Z,18.99
2019-04-01T01:15:12.272Z,18.97
2019-04-01T01:16:11.915Z,18.98
2019-04-01T01:17:11.936Z,18.99
2019-04-01T01:18:12.054Z,18.98
2019-04-01T01:19:11.939Z,19
2019-04-01T01:20:12.235Z,18.97
2019-04-01T01:21:11.867Z,18.97
2019-04-01T01:22:11.826Z,18.97
2019-04-01T01:23:11.789Z,18.95
2019-04-01T01:24:11.720Z,18.95
2019-04-01T01:25:11.808Z,18.96
2019-04-01T01:26:11.806Z,18.97
2019-04-01T01:27:11.945Z,18.96
2019-04-01T01:28:11.768Z,18.98
2019-04-01T01:29:11.965Z,18.98
2019-04-01T01:30:12.951Z,18.95
2019-04-01T01:31:11.973Z,18.97
2019-04-01T01:32:11.851Z,18.95
2019-04-01T01:33:12.016Z,18.99
2019-04-01T01:34:11.884Z,18.97
2019-04-01T01:35:11.899Z,18.94
2019-04-01T01:36:12.383Z,18.94
2019-04-01T01:37:12.014Z,18.95
2019-04-01T01:38:11.929Z,18.93
2019-04-01T01:39:11.704Z,18.96
2019-04-01T01:40:11.868Z,18.98
2019-04-01T01:41:11.759Z,18.94
2019-04-01T01:42:11.832Z,18.95
2019-04-01T01:43:11.838Z,18.97
2019-04-01T01:44:11.695Z,18.95
2019-04-01T01:45:11.863Z,18.97
2019-04-01T01:46:11.824Z,18.95
2019-04-01T01:47:11.838Z,18.95
2019-04-01T01:48:11.874Z,18.97
2019-04-01T01:49:11.846Z,18.94
2019-04-01T01:50:11.878Z,18.92
2019-04-01T01:51:11.917Z,18.93
2019-04-01T01:52:12.007Z,18.94
2019-04-01T01:53:11.939Z,18.98
2019-04-01T01:54:12.019Z,18.94
2019-04-01T01:55:11.947Z,18.93
2019-04-01T01:56:11.965Z,18.94
2019-04-01T01:57:11.869Z,18.94
2019-04-01T01:58:11.873Z,18.96
2019-04-01T01:59:11.876Z,18.98
2019-04-01T02:00:11.696Z,18.94
2019-04-01T02:01:11.754Z,18.95
2019-04-01T02:02:11.744Z,18.95
2019-04-01T02:03:11.967Z,18.98
2019-04-01T02:04:11.787Z,18.94
2019-04-01T02:05:11.923Z,18.95
2019-04-01T02:06:12.923Z,18.95
2019-04-01T02:07:11.827Z,18.94
2019-04-01T02:08:11.836Z,18.97
2019-04-01T02:09:11.902Z,18.93
2019-04-01T02:10:11.864Z,18.94
2019-04-01T02:11:11.832Z,18.96
2019-04-01T02:12:11.936Z,18.95
2019-04-01T02:13:12.104Z,18.95
2019-04-01T02:14:11.938Z,18.98
2019-04-01T02:15:11.729Z,18.96
2019-04-01T02:16:11.726Z,18.95
2019-04-01T02:17:11.859Z,18.96
2019-04-01T02:18:11.745Z,18.98
2019-04-01T02:19:11.793Z,18.94
2019-04-01T02:20:11.773Z,18.94
2019-04-01T02:21:11.797Z,18.96
2019-04-01T02:22:11.981Z,18.95
2019-04-01T02:23:11.824Z,18.94
2019-04-01T02:24:11.854Z,18.94
2019-04-01T02:25:11.886Z,18.94
2019-04-01T02:26:11.858Z,18.94
2019-04-01T02:27:12.024Z,18.96
2019-04-01T02:28:11.987Z,18.94
2019-04-01T02:29:12.045Z,18.95
2019-04-01T02:30:11.941Z,18.94
2019-04-01T02:31:11.958Z,18.96
2019-04-01T02:32:11.725Z,18.94
2019-04-01T02:33:11.704Z,18.95
2019-04-01T02:34:11.752Z,18.95
2019-04-01T02:35:11.718Z,18.94
2019-04-01T02:36:11.778Z,18.96
2019-04-01T02:37:11.900Z,18.95
2019-04-01T02:38:11.867Z,18.95
2019-04-01T02:39:11.819Z,18.94
2019-04-01T02:40:11.823Z,18.95
2019-04-01T02:41:12.333Z,18.95
2019-04-01T02:42:12.201Z,18.94
2019-04-01T02:43:12.009Z,18.92
2019-04-01T02:44:12.012Z,18.95
2019-04-01T02:45:11.967Z,18.94
2019-04-01T02:46:11.896Z,18.94
2019-04-01T02:47:11.897Z,18.94
2019-04-01T02:48:11.919Z,18.95
2019-04-01T02:49:12.022Z,18.92
2019-04-01T02:50:11.787Z,18.94
2019-04-01T02:51:11.765Z,18.91
2019-04-01T02:52:11.781Z,18.91
2019-04-01T02:53:11.910Z,18.92
2019-04-01T02:54:11.793Z,18.92
2019-04-01T02:55:11.880Z,18.93
2019-04-01T02:56:11.820Z,18.93
2019-04-01T02:57:11.849Z,18.91
2019-04-01T02:58:11.911Z,18.92
2019-04-01T02:59:11.819Z,18.93
2019-04-01T03:00:11.856Z,18.89
2019-04-01T03:01:12.006Z,18.92
2019-04-01T03:02:11.873Z,18.93
2019-04-01T03:03:11.914Z,18.91
2019-04-01T03:04:12.103Z,18.91
2019-04-01T03:05:11.921Z,18.89
2019-04-01T03:06:11.972Z,18.92
2019-04-01T03:07:11.955Z,18.88
2019-04-01T03:08:11.699Z,18.94
2019-04-01T03:09:11.733Z,18.91
2019-04-01T03:10:11.793Z,18.92
2019-04-01T03:11:11.771Z,18.92
2019-04-01T03:12:11.753Z,18.89
2019-04-01T03:13:11.954Z,18.89
2019-04-01T03:14:11.744Z,18.89
2019-04-01T03:15:11.761Z,18.91
2019-04-01T03:16:11.805Z,18.91
2019-04-01T03:17:12.023Z,18.91
2019-04-01T03:18:11.816Z,18.91
2019-04-01T03:19:11.842Z,18.91
2019-04-01T03:20:11.837Z,18.88
2019-04-01T03:21:11.862Z,18.91
2019-04-01T03:22:11.873Z,18.92
2019-04-01T03:23:11.878Z,18.89
2019-04-01T03:24:12.179Z,18.89
2019-04-01T03:25:11.763Z,18.88
2019-04-01T03:26:11.851Z,18.88
2019-04-01T03:27:11.725Z,18.88
2019-04-01T03:28:11.728Z,18.88
2019-04-01T03:29:11.763Z,18.88
2019-04-01T03:30:11.987Z,18.88
2019-04-01T03:31:11.850Z,18.88
2019-04-01T03:32:11.817Z,18.88
2019-04-01T03:33:11.890Z,18.88
2019-04-01T03:34:11.989Z,18.86
2019-04-01T03:35:12.064Z,18.87
2019-04-01T03:36:11.866Z,18.85
2019-04-01T03:37:12.012Z,18.87
2019-04-01T03:38:11.906Z,18.86
2019-04-01T03:39:11.871Z,18.87
2019-04-01T03:40:11.915Z,18.86
2019-04-01T03:41:11.934Z,18.85
2019-04-01T03:42:11.818Z,18.86
2019-04-01T03:43:11.693Z,18.86
2019-04-01T03:44:11.678Z,18.85
2019-04-01T03:45:11.774Z,18.83
2019-04-01T03:46:12.192Z,18.85
2019-04-01T03:47:12.118Z,18.83
2019-04-01T03:48:11.892Z,18.85
2019-04-01T03:49:11.981Z,18.86
2019-04-01T03:50:11.777Z,18.87
2019-04-01T03:51:11.783Z,18.88
2019-04-01T03:52:11.816Z,18.91
2019-04-01T03:53:11.926Z,18.92
2019-04-01T03:54:12.005Z,18.93
2019-04-01T03:55:11.934Z,18.94
2019-04-01T03:56:11.880Z,18.97
2019-04-01T03:57:11.852Z,18.99
2019-04-01T03:58:11.878Z,18.98
2019-04-01T03:59:11.744Z,18.98
2019-04-01T04:00:11.773Z,19.02
2019-04-01T04:01:11.865Z,19.01
2019-04-01T04:02:11.830Z,19.01
2019-04-01T04:03:11.756Z,19.08
2019-04-01T04:04:11.862Z,19.08
2019-04-01T04:05:11.797Z,19.09
2019-04-01T04:06:11.800Z,19.09
2019-04-01T04:07:12.097Z,19.12
2019-04-01T04:08:12.176Z,19.13
2019-04-01T04:09:11.943Z,19.14
2019-04-01T04:10:11.822Z,19.17
2019-04-01T04:11:12.074Z,19.18
2019-04-01T04:12:12.033Z,19.2
2019-04-01T04:13:12.121Z,19.22
2019-04-01T04:14:12.162Z,19.23
2019-04-01T04:15:11.753Z,19.23
2019-04-01T04:16:11.663Z,19.25
2019-04-01T04:17:11.700Z,19.29
2019-04-01T04:18:11.703Z,19.28
2019-04-01T04:19:11.681Z,19.29
2019-04-01T04:20:11.707Z,19.3
2019-04-01T04:21:11.792Z,19.3
2019-04-01T04:22:11.950Z,19.36
2019-04-01T04:23:11.759Z,19.35
2019-04-01T04:24:11.660Z,19.36
2019-04-01T04:25:11.750Z,19.39
2019-04-01T04:26:11.915Z,19.4
2019-04-01T04:27:11.865Z,19.4
2019-04-01T04:28:11.826Z,19.42
2019-04-01T04:29:11.837Z,19.41
2019-04-01T04:30:11.843Z,19.43
2019-04-01T04:31:11.832Z,19.46
2019-04-01T04:32:11.914Z,19.46
2019-04-01T04:33:11.901Z,19.47
2019-04-01T04:34:11.692Z,19.51
2019-04-01T04:35:11.707Z,19.48
2019-04-01T04:36:11.693Z,19.5
2019-04-01T04:37:11.716Z,19.52
2019-04-01T04:38:11.738Z,19.52
2019-04-01T04:39:11.721Z,19.53
2019-04-01T04:40:11.756Z,19.56
2019-04-01T04:41:11.785Z,19.56
2019-04-01T04:42:11.750Z,19.57
2019-04-01T04:43:11.821Z,19.59
2019-04-01T04:44:11.957Z,19.56
2019-04-01T04:45:11.829Z,19.6
2019-04-01T04:46:11.970Z,19.61
2019-04-01T04:47:11.889Z,19.6
2019-04-01T04:48:11.951Z,19.62
2019-04-01T04:49:11.866Z,19.62
2019-04-01T04:50:11.915Z,19.62
2019-04-01T04:51:11.972Z,19.6
2019-04-01T04:52:11.798Z,19.61
2019-04-01T04:53:11.797Z,19.65
2019-04-01T04:54:11.732Z,19.65
2019-04-01T04:55:11.775Z,19.65
2019-04-01T04:56:11.685Z,19.65
2019-04-01T04:57:11.702Z,19.65
2019-04-01T04:58:11.811Z,19.63
2019-04-01T04:59:11.709Z,19.66
2019-04-01T05:00:11.757Z,19.68
2019-04-01T05:01:11.827Z,19.68
2019-04-01T05:02:11.676Z,19.67
2019-04-01T05:03:11.843Z,19.68
2019-04-01T05:04:11.785Z,19.67
2019-04-01T05:05:11.848Z,19.68
2019-04-01T05:06:11.806Z,19.7
2019-04-01T05:07:11.916Z,19.68
2019-04-01T05:08:11.850Z,19.68
2019-04-01T05:09:11.997Z,19.69
2019-04-01T05:10:11.651Z,19.69
2019-04-01T05:11:11.682Z,19.68
2019-04-01T05:12:11.685Z,19.68
2019-04-01T05:13:11.680Z,19.7
2019-04-01T05:14:11.836Z,19.69
2019-04-01T05:15:11.732Z,19.7
2019-04-01T05:16:11.811Z,19.7
2019-04-01T05:17:11.864Z,19.7
2019-04-01T05:18:11.734Z,19.7
2019-04-01T05:19:11.809Z,19.71
2019-04-01T05:20:11.845Z,19.7
2019-04-01T05:21:11.807Z,19.7
2019-04-01T05:22:11.990Z,19.7
2019-04-01T05:23:11.841Z,19.7
2019-04-01T05:24:11.845Z,19.7
2019-04-01T05:25:11.959Z,19.69
2019-04-01T05:26:11.867Z,19.7
2019-04-01T05:27:11.901Z,19.7
2019-04-01T05:28:11.938Z,19.69
2019-04-01T05:29:11.746Z,19.71
2019-04-01T05:30:11.592Z,19.7
2019-04-01T05:31:15.003Z,19.71
2019-04-01T05:32:11.634Z,19.71
2019-04-01T05:33:11.692Z,19.7
2019-04-01T05:34:11.774Z,19.69
2019-04-01T05:35:11.709Z,19.69
2019-04-01T05:36:11.969Z,19.7
2019-04-01T05:37:11.791Z,19.69
2019-04-01T05:38:11.703Z,19.68
2019-04-01T05:39:11.778Z,19.68
2019-04-01T05:40:11.729Z,19.69
2019-04-01T05:41:11.757Z,19.68
2019-04-01T05:42:11.973Z,19.67
2019-04-01T05:43:11.854Z,19.67
2019-04-01T05:44:11.801Z,19.68
2019-04-01T05:45:11.858Z,19.67
2019-04-01T05:46:11.842Z,19.67
2019-04-01T05:47:11.864Z,19.69
2019-04-01T05:48:11.964Z,19.7
2019-04-01T05:49:11.749Z,19.69
2019-04-01T05:50:11.783Z,19.68
2019-04-01T05:51:11.684Z,19.69
2019-04-01T05:52:12.013Z,19.68
2019-04-01T05:53:11.657Z,19.67
2019-04-01T05:54:11.756Z,19.68
2019-04-01T05:55:11.871Z,19.68
2019-04-01T05:56:11.716Z,19.67
2019-04-01T05:57:12.240Z,19.69
2019-04-01T05:58:11.708Z,19.69
2019-04-01T05:59:11.741Z,19.67
2019-04-01T06:00:11.775Z,19.68
2019-04-01T06:01:11.770Z,19.68
2019-04-01T06:02:11.862Z,19.67
2019-04-01T06:03:11.811Z,19.7
2019-04-01T06:04:11.887Z,19.66
2019-04-01T06:05:12.173Z,19.67
2019-04-01T06:06:11.895Z,19.68
2019-04-01T06:07:11.912Z,19.65
2019-04-01T06:08:11.697Z,19.68
2019-04-01T06:09:11.595Z,19.67
2019-04-01T06:10:11.624Z,19.66
2019-04-01T06:11:11.615Z,19.67
2019-04-01T06:12:11.632Z,19.63
2019-04-01T06:13:11.682Z,19.65
2019-04-01T06:14:11.662Z,19.67
2019-04-01T06:15:11.714Z,19.65
2019-04-01T06:16:11.781Z,19.66
2019-04-01T06:17:11.756Z,19.67
2019-04-01T06:18:11.806Z,19.65
2019-04-01T06:19:11.711Z,19.67
2019-04-01T06:20:11.725Z,19.67
2019-04-01T06:21:11.788Z,19.66
2019-04-01T06:22:11.781Z,19.67
2019-04-01T06:23:11.836Z,19.68
2019-04-01T06:24:11.933Z,19.68
2019-04-01T06:25:12.060Z,19.69
2019-04-01T06:26:11.811Z,19.67
2019-04-01T06:27:14.021Z,19.67
2019-04-01T06:28:11.636Z,19.69
2019-04-01T06:29:11.637Z,19.68
2019-04-01T06:30:11.758Z,19.67
2019-04-01T06:31:11.753Z,19.67
2019-04-01T06:32:11.786Z,19.69
2019-04-01T06:33:11.743Z,19.67
2019-04-01T06:34:11.685Z,19.69
2019-04-01T06:35:11.718Z,19.67
2019-04-01T06:36:11.712Z,19.68
2019-04-01T06:37:11.741Z,19.69
2019-04-01T06:38:11.868Z,19.69
2019-04-01T06:39:12.071Z,19.7
2019-04-01T06:40:11.823Z,19.7
2019-04-01T06:41:12.228Z,19.67
2019-04-01T06:42:12.031Z,19.69
2019-04-01T06:43:11.936Z,19.69
2019-04-01T06:44:11.893Z,19.7
2019-04-01T06:45:11.870Z,19.69
2019-04-01T06:46:12.072Z,19.68
2019-04-01T06:47:11.758Z,19.71
2019-04-01T06:48:11.682Z,19.7
2019-04-01T06:49:11.629Z,19.71
2019-04-01T06:50:11.649Z,19.71
2019-04-01T06:51:11.677Z,19.72
2019-04-01T06:52:11.631Z,19.71
2019-04-01T06:53:11.647Z,19.69
2019-04-01T06:54:11.660Z,19.71
2019-04-01T06:55:12.025Z,19.71
2019-04-01T06:56:11.852Z,19.7
2019-04-01T06:57:11.891Z,19.71
2019-04-01T06:58:12.386Z,19.71
2019-04-01T06:59:11.869Z,19.71
2019-04-01T07:00:11.885Z,19.71
2019-04-01T07:01:11.751Z,19.71
2019-04-01T07:02:11.845Z,19.72
2019-04-01T07:03:12.040Z,19.7
2019-04-01T07:04:11.982Z,19.74
2019-04-01T07:05:13.226Z,19.72
2019-04-01T07:06:11.593Z,19.72
2019-04-01T07:07:19.791Z,19.72
2019-04-01T07:08:11.733Z,19.72
2019-04-01T07:09:11.662Z,19.71
2019-04-01T07:10:11.832Z,19.74
2019-04-01T07:11:11.692Z,19.72
2019-04-01T07:12:11.708Z,19.72
2019-04-01T07:13:11.733Z,19.74
2019-04-01T07:14:11.770Z,19.73
2019-04-01T07:15:11.711Z,19.73
2019-04-01T07:16:16.601Z,19.72
2019-04-01T07:17:11.760Z,19.73
2019-04-01T07:18:11.832Z,19.74
2019-04-01T07:19:11.910Z,19.74
2019-04-01T07:20:11.842Z,19.74
2019-04-01T07:21:11.830Z,19.74
2019-04-01T07:22:12.159Z,19.74
2019-04-01T07:23:11.841Z,19.74
2019-04-01T07:24:11.978Z,19.75
2019-04-01T07:25:12.083Z,19.74
2019-04-01T07:26:11.584Z,19.74
2019-04-01T07:27:11.622Z,19.74
2019-04-01T07:28:11.704Z,19.75
2019-04-01T07:29:11.657Z,19.75
2019-04-01T07:30:11.675Z,19.76
2019-04-01T07:31:11.778Z,19.75
2019-04-01T07:32:14.951Z,19.77
2019-04-01T07:33:11.696Z,19.75
2019-04-01T07:34:11.781Z,19.74
2019-04-01T07:35:11.718Z,19.76
2019-04-01T07:36:11.857Z,19.74
2019-04-01T07:37:12.147Z,19.75
2019-04-01T07:38:11.822Z,19.76
2019-04-01T07:39:11.922Z,19.75
2019-04-01T07:40:14.353Z,19.75
2019-04-01T07:41:11.822Z,19.76
2019-04-01T07:42:11.829Z,19.75
2019-04-01T07:43:15.534Z,19.75
2019-04-01T07:44:11.632Z,19.77
2019-04-01T07:45:11.643Z,19.74
2019-04-01T07:46:11.647Z,19.79
2019-04-01T07:47:11.894Z,19.76
2019-04-01T07:48:13.224Z,19.76
2019-04-01T07:49:11.730Z,19.77
2019-04-01T07:50:12.919Z,19.75
2019-04-01T07:51:11.895Z,19.75
2019-04-01T07:52:11.833Z,19.76
2019-04-01T07:53:11.799Z,19.75
2019-04-01T07:54:11.768Z,19.75
2019-04-01T07:55:11.781Z,19.76
2019-04-01T07:56:11.831Z,19.76
2019-04-01T07:57:11.813Z,19.75
2019-04-01T07:58:11.852Z,19.75
2019-04-01T07:59:11.826Z,19.75
2019-04-01T08:00:11.590Z,19.77
2019-04-01T08:01:11.676Z,19.75
2019-04-01T08:02:11.555Z,19.75
2019-04-01T08:03:11.722Z,19.75
2019-04-01T08:04:11.735Z,19.76
2019-04-01T08:05:11.626Z,19.77
2019-04-01T08:06:11.657Z,19.75
2019-04-01T08:07:13.990Z,19.79
2019-04-01T08:08:11.734Z,19.76
2019-04-01T08:09:11.899Z,19.79
2019-04-01T08:10:11.696Z,19.8
2019-04-01T08:11:11.817Z,19.79
2019-04-01T08:12:11.723Z,19.79
2019-04-01T08:13:11.738Z,19.77
2019-04-01T08:14:11.782Z,19.76
2019-04-01T08:15:11.757Z,19.76
2019-04-01T08:16:11.831Z,19.76
2019-04-01T08:17:11.774Z,19.79
2019-04-01T08:18:11.615Z,19.76
2019-04-01T08:19:11.623Z,19.79
2019-04-01T08:20:11.632Z,19.77
2019-04-01T08:21:11.644Z,19.79
2019-04-01T08:22:11.724Z,19.79
2019-04-01T08:23:11.694Z,19.76
2019-04-01T08:24:11.791Z,19.74
2019-04-01T08:25:11.740Z,19.79
2019-04-01T08:26:11.875Z,19.79
2019-04-01T08:27:11.764Z,19.76
2019-04-01T08:28:11.831Z,19.77
2019-04-01T08:29:11.816Z,19.76
2019-04-01T08:30:11.853Z,19.77
2019-04-01T08:31:13.737Z,19.77
2019-04-01T08:32:14.549Z,19.79
2019-04-01T08:33:12.041Z,19.77
2019-04-01T08:34:11.730Z,19.77
2019-04-01T08:35:11.582Z,19.79
2019-04-01T08:36:11.629Z,19.77
2019-04-01T08:37:11.592Z,19.76
2019-04-01T08:38:11.588Z,19.79
2019-04-01T08:39:11.612Z,19.77
2019-04-01T08:40:11.651Z,19.8
2019-04-01T08:41:11.658Z,19.77
2019-04-01T08:42:11.682Z,19.76
2019-04-01T08:43:11.871Z,19.79
2019-04-01T08:44:11.685Z,19.76
2019-04-01T08:45:11.710Z,19.8
2019-04-01T08:46:11.869Z,19.79
2019-04-01T08:47:11.801Z,19.8
2019-04-01T08:48:11.833Z,19.76
2019-04-01T08:49:11.855Z,19.8
2019-04-01T08:50:11.938Z,19.79
2019-04-01T08:51:11.787Z,19.79
2019-04-01T08:52:11.723Z,19.8
2019-04-01T08:53:11.712Z,19.77
2019-04-01T08:54:11.751Z,19.79
2019-04-01T08:55:11.630Z,19.77
2019-04-01T08:56:11.660Z,19.79
2019-04-01T08:57:11.695Z,19.76
2019-04-01T08:58:11.766Z,19.79
2019-04-01T08:59:11.678Z,19.77
2019-04-01T09:00:11.698Z,19.79
2019-04-01T09:01:11.861Z,19.8
2019-04-01T09:02:18.847Z,19.79
2019-04-01T09:03:11.802Z,19.79
2019-04-01T09:04:11.746Z,19.79
2019-04-01T09:05:11.785Z,19.76
2019-04-01T09:06:12.936Z,19.77
2019-04-01T09:07:11.787Z,19.79
2019-04-01T09:08:11.580Z,19.79
2019-04-01T09:09:11.544Z,19.79
2019-04-01T09:10:11.631Z,19.77
2019-04-01T09:11:11.612Z,19.79
2019-04-01T09:12:11.742Z,19.76
2019-04-01T09:13:11.691Z,19.8
2019-04-01T09:14:11.903Z,19.79
2019-04-01T09:15:11.645Z,19.77
2019-04-01T09:16:11.662Z,19.79
2019-04-01T09:17:11.664Z,19.77
2019-04-01T09:18:11.654Z,19.76
2019-04-01T09:19:11.676Z,19.77
2019-04-01T09:20:11.706Z,19.79
2019-04-01T09:21:11.873Z,19.76
2019-04-01T09:22:11.890Z,19.77
2019-04-01T09:23:11.758Z,19.75
2019-04-01T09:24:11.789Z,19.77
2019-04-01T09:25:11.657Z,19.79
2019-04-01T09:26:11.672Z,19.75
2019-04-01T09:27:11.587Z,19.77
2019-04-01T09:28:11.613Z,19.75
2019-04-01T09:29:11.714Z,19.77
2019-04-01T09:30:11.817Z,19.75
2019-04-01T09:31:11.746Z,19.76
2019-04-01T09:32:11.768Z,19.77
2019-04-01T09:33:11.660Z,19.77
2019-04-01T09:34:11.795Z,19.76
2019-04-01T09:35:12.073Z,19.75
2019-04-01T09:36:13.629Z,19.77
2019-04-01T09:37:11.774Z,19.76
2019-04-01T09:38:11.767Z,19.77
2019-04-01T09:39:11.775Z,19.75
2019-04-01T09:40:12.032Z,19.77
2019-04-01T09:41:13.934Z,19.76
2019-04-01T09:42:11.568Z,19.76
2019-04-01T09:43:14.695Z,19.75
2019-04-01T09:44:11.575Z,19.75
2019-04-01T09:45:11.563Z,19.77
2019-04-01T09:46:11.599Z,19.76
2019-04-01T09:47:11.566Z,19.76
2019-04-01T09:48:11.613Z,19.75
2019-04-01T09:49:11.633Z,19.76
2019-04-01T09:50:11.758Z,19.77
2019-04-01T09:51:11.650Z,19.77
2019-04-01T09:52:11.699Z,19.76
2019-04-01T09:53:11.669Z,19.77
2019-04-01T09:54:12.240Z,19.77
2019-04-01T09:55:11.581Z,19.75
2019-04-01T09:56:12.679Z,19.77
2019-04-01T09:57:18.635Z,19.76
2019-04-01T09:58:11.881Z,19.77
2019-04-01T09:59:11.628Z,19.77
2019-04-01T10:00:11.653Z,19.79
2019-04-01T10:01:11.735Z,19.79
2019-04-01T10:02:12.250Z,19.79
2019-04-01T10:03:11.666Z,19.76
2019-04-01T10:04:11.629Z,19.79
2019-04-01T10:05:11.682Z,19.77
2019-04-01T10:06:11.806Z,19.77
2019-04-01T10:07:11.679Z,19.79
2019-04-01T10:08:11.774Z,19.76
2019-04-01T10:09:11.720Z,19.77
2019-04-01T10:10:11.734Z,19.79
2019-04-01T10:11:13.330Z,19.79
2019-04-01T10:12:11.859Z,19.76
2019-04-01T10:13:11.835Z,19.8
2019-04-01T10:14:11.836Z,19.77
2019-04-01T10:15:11.843Z,19.76
2019-04-01T10:16:11.528Z,19.77
2019-04-01T10:17:11.630Z,19.75
2019-04-01T10:18:11.768Z,19.77
2019-04-01T10:19:11.775Z,19.77
2019-04-01T10:20:11.628Z,19.79
2019-04-01T10:21:11.663Z,19.79
2019-04-01T10:22:11.719Z,19.77
2019-04-01T10:23:11.648Z,19.79
2019-04-01T10:24:11.678Z,19.77
2019-04-01T10:25:11.620Z,19.77
2019-04-01T10:26:11.666Z,19.77
2019-04-01T10:27:16.268Z,19.77
2019-04-01T10:28:26.784Z,19.79
2019-04-01T10:29:29.036Z,19.76
2019-04-01T10:30:21.503Z,19.75
2019-04-01T10:31:11.760Z,19.76
2019-04-01T10:32:11.703Z,19.79
2019-04-01T10:33:11.744Z,19.76
2019-04-01T10:34:11.765Z,19.76
2019-04-01T10:35:11.623Z,19.76
2019-04-01T10:36:11.577Z,19.77
2019-04-01T10:37:11.654Z,19.8
2019-04-01T10:38:11.588Z,19.79
2019-04-01T10:39:11.752Z,19.79
2019-04-01T10:40:11.727Z,19.79
2019-04-01T10:41:11.746Z,19.8
2019-04-01T10:42:11.747Z,19.79
2019-04-01T10:43:11.670Z,19.8
2019-04-01T10:44:11.696Z,19.76
2019-04-01T10:45:45.816Z,19.79
2019-04-01T10:46:16.401Z,19.8
2019-04-01T10:47:12.121Z,19.81
2019-04-01T10:48:12.218Z,19.82
2019-04-01T10:49:12.300Z,19.82
2019-04-01T10:50:12.501Z,19.82
2019-04-01T10:51:12.054Z,19.82
2019-04-01T10:52:12.262Z,19.82
2019-04-01T10:53:11.806Z,19.82
2019-04-01T10:54:11.682Z,19.83
2019-04-01T10:55:12.292Z,19.85
2019-04-01T10:56:12.047Z,19.84
2019-04-01T10:57:12.034Z,19.83
2019-04-01T10:58:11.859Z,19.84
2019-04-01T10:59:12.102Z,19.85
2019-04-01T11:00:12.276Z,19.84
2019-04-01T11:01:12.407Z,19.85
2019-04-01T11:02:12.267Z,19.86
2019-04-01T11:03:12.295Z,19.85
2019-04-01T11:04:12.138Z,19.87
2019-04-01T11:05:12.032Z,19.84
2019-04-01T11:06:12.061Z,19.86
2019-04-01T11:07:12.481Z,19.87
2019-04-01T11:08:12.075Z,19.86
2019-04-01T11:09:12.268Z,19.88
2019-04-01T11:10:12.258Z,19.86
2019-04-01T11:11:11.563Z,19.89
2019-04-01T11:12:11.573Z,19.89
2019-04-01T11:13:11.555Z,19.87
2019-04-01T11:14:11.711Z,19.87
2019-04-01T11:15:16.255Z,19.87
2019-04-01T11:16:11.630Z,19.89
2019-04-01T11:17:11.708Z,19.89
2019-04-01T11:18:12.534Z,19.86
2019-04-01T11:19:11.809Z,19.88
2019-04-01T11:20:11.833Z,19.88
2019-04-01T11:21:11.814Z,19.88
2019-04-01T11:22:11.726Z,19.87
2019-04-01T11:23:12.110Z,19.88
2019-04-01T11:24:11.847Z,19.86
2019-04-01T11:25:11.872Z,19.86
2019-04-01T11:26:11.773Z,19.88
2019-04-01T11:27:11.593Z,19.85
2019-04-01T11:28:11.498Z,19.88
2019-04-01T11:29:11.543Z,19.89
2019-04-01T11:30:14.430Z,19.86
2019-04-01T11:31:12.129Z,19.86
2019-04-01T11:32:14.283Z,19.85
2019-04-01T11:33:12.170Z,19.86
2019-04-01T11:34:11.825Z,19.82
2019-04-01T11:35:12.311Z,19.84
2019-04-01T11:36:11.998Z,19.87
2019-04-01T11:37:11.871Z,19.85
2019-04-01T11:38:12.035Z,19.88
2019-04-01T11:39:11.869Z,19.88
2019-04-01T11:40:13.206Z,19.89
2019-04-01T11:41:12.015Z,19.89
2019-04-01T11:42:12.340Z,19.92
2019-04-01T11:43:19.904Z,19.9
2019-04-01T11:44:11.970Z,19.92
2019-04-01T11:45:12.306Z,19.92
2019-04-01T11:46:13.381Z,19.94
2019-04-01T11:47:11.999Z,19.95
2019-04-01T11:48:12.042Z,19.94
2019-04-01T11:49:11.904Z,19.92
2019-04-01T11:50:12.183Z,19.91
2019-04-01T11:51:12.028Z,19.94
2019-04-01T11:52:16.297Z,19.96
2019-04-01T11:53:11.660Z,19.94
2019-04-01T11:54:11.705Z,19.95
2019-04-01T11:55:11.711Z,19.94
2019-04-01T11:56:11.918Z,19.94
2019-04-01T11:57:11.695Z,19.92
2019-04-01T11:58:11.807Z,19.96
2019-04-01T11:59:11.754Z,19.91
2019-04-01T12:00:13.943Z,19.94
2019-04-01T12:01:11.728Z,19.95
2019-04-01T12:02:11.471Z,19.95
2019-04-01T12:03:11.505Z,19.97
2019-04-01T12:04:11.535Z,19.94
2019-04-01T12:05:11.495Z,19.97
2019-04-01T12:06:11.929Z,19.97
2019-04-01T12:07:11.698Z,19.97
2019-04-01T12:08:11.547Z,19.94
2019-04-01T12:09:11.737Z,19.92
2019-04-01T12:10:11.582Z,19.95
2019-04-01T12:11:11.586Z,19.92
2019-04-01T12:12:24.690Z,19.96
2019-04-01T12:13:11.753Z,19.94
2019-04-01T12:14:11.771Z,19.94
2019-04-01T12:15:13.002Z,19.92
2019-04-01T12:16:11.673Z,19.95
2019-04-01T12:17:11.792Z,19.94
2019-04-01T12:18:11.758Z,19.94
2019-04-01T12:19:11.509Z,19.92
2019-04-01T12:20:11.644Z,19.91
2019-04-01T12:21:11.578Z,19.91
2019-04-01T12:22:11.765Z,19.96
2019-04-01T12:23:11.641Z,19.94
2019-04-01T12:24:11.571Z,19.94
2019-04-01T12:25:11.628Z,19.94
2019-04-01T12:26:18.062Z,19.94
2019-04-01T12:27:11.600Z,19.94
2019-04-01T12:28:11.992Z,19.94
2019-04-01T12:29:15.022Z,19.92
2019-04-01T12:30:11.646Z,19.94
2019-04-01T12:31:13.459Z,19.92
2019-04-01T12:32:11.812Z,19.94
2019-04-01T12:33:11.793Z,19.94
2019-04-01T12:34:11.773Z,19.92
2019-04-01T12:35:11.735Z,19.94
2019-04-01T12:36:12.326Z,19.92
2019-04-01T12:37:11.483Z,19.92
2019-04-01T12:38:11.523Z,19.94
2019-04-01T12:39:11.576Z,19.94
2019-04-01T12:40:11.559Z,19.92
2019-04-01T12:41:11.760Z,19.91
2019-04-01T12:42:11.529Z,19.91
2019-04-01T12:43:11.571Z,19.91
2019-04-01T12:44:11.810Z,19.94
2019-04-01T12:45:11.626Z,19.92
2019-04-01T12:46:11.610Z,19.92
2019-04-01T12:47:11.620Z,19.92
2019-04-01T12:48:11.660Z,19.9
2019-04-01T12:49:11.603Z,19.94
2019-04-01T12:50:13.565Z,19.94
2019-04-01T12:51:11.654Z,19.92
2019-04-01T12:52:11.751Z,19.92
2019-04-01T12:53:11.790Z,19.94
2019-04-01T12:54:11.468Z,19.96